Time;durP1;ratioP1;P1;durP2;ratioP2;P2;SDS_P1;SDS_P2;PMS_P1;PMS_P2;Temp;Humidity;BMP_temperature;BMP_pressure;BME280_temperature;BME280_humidity;BME280_pressure;Samples;Min_cycle;Max_cycle;Signal;HPM_P1;HPM_P2
2022/01/13 00:01:56;;;;;;;14.60;8.95;;;1.40;1.00;;;;;;5071739;28;20749;-77
2022/01/13 00:04:22;;;;;;;11.80;8.05;;;1.50;1.00;;;;;;5054473;28;20262;-77
2022/01/13 00:06:47;;;;;;;17.90;9.30;;;1.50;1.00;;;;;;5060758;28;20325;-77
2022/01/13 00:09:38;;;;;;;12.67;7.00;;;1.60;1.00;;;;;;5074591;28;20155;-78
2022/01/13 00:12:06;;;;;;;12.30;7.82;;;1.60;1.00;;;;;;5054626;28;20187;-78
2022/01/13 00:24:59;;;;;;;15.90;9.05;;;1.80;1.00;;;;;;5067810;28;20207;-77
2022/01/13 00:27:42;;;;;;;17.83;9.75;;;1.90;1.00;;;;;;5054275;28;20511;-77
2022/01/13 00:30:15;;;;;;;19.40;9.68;;;1.90;1.00;;;;;;5055350;28;20203;-74
2022/01/13 00:32:40;;;;;;;16.42;8.70;;;2.00;1.00;;;;;;5066227;28;20195;-74
2022/01/13 00:35:07;;;;;;;14.50;7.53;;;2.00;1.00;;;;;;5053766;28;20536;-75
2022/01/13 00:37:34;;;;;;;16.35;7.88;;;2.00;1.00;;;;;;5068358;28;20219;-74
2022/01/13 00:40:00;;;;;;;11.88;7.20;;;2.00;1.00;;;;;;5062719;28;20184;-74
2022/01/13 00:42:25;;;;;;;14.47;7.37;;;2.10;1.00;;;;;;5067151;28;20179;-74
2022/01/13 00:44:51;;;;;;;10.10;6.47;;;2.10;1.00;;;;;;5052992;28;20162;-74
2022/01/13 00:47:29;;;;;;;11.20;6.87;;;2.10;1.00;;;;;;5064676;28;20263;-74
2022/01/13 00:50:04;;;;;;;12.65;6.57;;;2.10;1.00;;;;;;5055847;28;20176;-74
2022/01/13 00:52:29;;;;;;;10.50;6.70;;;2.10;1.00;;;;;;5053217;28;20187;-74
2022/01/13 00:54:56;;;;;;;13.73;6.30;;;2.10;1.00;;;;;;5060581;28;20268;-74
2022/01/13 00:57:23;;;;;;;8.05;6.05;;;2.10;1.00;;;;;;5059988;28;20181;-74
2022/01/13 01:00:08;;;;;;;13.68;6.50;;;2.20;1.00;;;;;;5060888;28;20171;-77
2022/01/13 01:02:34;;;;;;;13.07;6.45;;;2.20;1.00;;;;;;5036672;28;20191;-77
2022/01/13 01:05:14;;;;;;;8.90;6.00;;;2.20;1.00;;;;;;5053321;28;20164;-77
2022/01/13 01:08:02;;;;;;;16.65;7.35;;;2.20;1.00;;;;;;5058274;28;20171;-77
2022/01/13 01:10:32;;;;;;;13.77;7.50;;;2.10;1.00;;;;;;5046258;28;20552;-77
2022/01/13 01:13:14;;;;;;;12.07;7.10;;;2.10;1.00;;;;;;5072067;28;20308;-77
2022/01/13 01:15:47;;;;;;;11.35;6.75;;;2.20;1.00;;;;;;5061490;28;20186;-74
2022/01/13 01:18:30;;;;;;;11.75;7.13;;;2.20;1.00;;;;;;5060967;28;20170;-74
2022/01/13 01:29:20;;;;;;;11.13;6.57;;;2.20;1.00;;;;;;5012764;28;20186;-77
2022/01/13 01:31:57;;;;;;;9.15;5.88;;;2.30;1.00;;;;;;5006690;28;20231;-77
2022/01/13 01:37:15;;;;;;;13.65;7.05;;;2.20;1.00;;;;;;4990522;28;20193;-77
2022/01/13 01:39:42;;;;;;;11.63;5.80;;;2.30;1.00;;;;;;4995641;28;20276;-77
2022/01/13 01:42:46;;;;;;;10.85;6.45;;;2.30;1.00;;;;;;5009369;28;20212;-77
2022/01/13 01:45:13;;;;;;;7.60;5.78;;;2.30;1.00;;;;;;5007926;28;20239;-77
2022/01/13 01:48:04;;;;;;;16.17;7.40;;;2.30;1.00;;;;;;5011614;28;20181;-77
2022/01/13 01:50:53;;;;;;;14.15;7.15;;;2.30;1.00;;;;;;5008249;28;20185;-77
2022/01/13 01:53:19;;;;;;;13.40;6.85;;;2.30;1.00;;;;;;5009028;28;20185;-77
2022/01/13 01:55:57;;;;;;;10.83;6.70;;;2.30;1.00;;;;;;5008171;28;20681;-77
2022/01/13 01:58:50;;;;;;;8.23;6.18;;;;;;;;;;4997159;28;20312;-77
2022/01/13 02:01:16;;;;;;;10.65;6.38;;;2.30;1.00;;;;;;5014967;28;20205;-74
2022/01/13 02:03:50;;;;;;;12.23;7.18;;;2.20;1.00;;;;;;5037675;28;20259;-74
2022/01/13 02:06:20;;;;;;;11.77;6.72;;;2.20;1.00;;;;;;5069838;28;20179;-74
2022/01/13 02:08:46;;;;;;;13.15;7.18;;;2.30;1.00;;;;;;5044994;28;20183;-74
2022/01/13 02:11:13;;;;;;;11.60;7.20;;;2.30;1.00;;;;;;5057250;28;20217;-74
2022/01/13 02:13:50;;;;;;;9.30;5.60;;;2.30;1.00;;;;;;5063312;28;20421;-75
2022/01/13 02:16:38;;;;;;;13.43;6.93;;;2.40;1.00;;;;;;5061961;28;20184;-74
2022/01/13 02:19:03;;;;;;;11.93;7.25;;;2.30;1.00;;;;;;5057094;28;20211;-74
2022/01/13 02:21:28;;;;;;;18.90;6.95;;;2.30;1.00;;;;;;5058680;28;20199;-74
2022/01/13 02:23:55;;;;;;;8.40;6.60;;;2.40;1.00;;;;;;5056302;28;20179;-74
2022/01/13 02:26:28;;;;;;;15.20;8.02;;;2.40;1.00;;;;;;5060672;28;20177;-74
2022/01/13 02:28:54;;;;;;;12.50;7.38;;;2.40;1.00;;;;;;5064478;28;20171;-74
2022/01/13 02:31:27;;;;;;;11.00;6.90;;;2.40;1.00;;;;;;5061576;28;20638;-77
2022/01/13 02:33:53;;;;;;;9.52;6.68;;;2.40;1.00;;;;;;5065244;28;20198;-77
2022/01/13 02:36:30;;;;;;;10.57;6.68;;;2.40;1.00;;;;;;5064688;28;20207;-77
2022/01/13 02:39:04;;;;;;;14.65;8.13;;;2.40;1.00;;;;;;5055793;28;20194;-77
2022/01/13 02:41:32;;;;;;;13.82;7.45;;;2.40;1.00;;;;;;5066785;28;20209;-77
2022/01/13 02:44:11;;;;;;;13.45;6.90;;;2.40;1.00;;;;;;5064235;28;20303;-77
2022/01/13 02:49:11;;;;;;;14.63;7.43;;;2.50;1.00;;;;;;5062550;28;20175;-77
2022/01/13 02:51:52;;;;;;;12.15;7.05;;;2.50;1.00;;;;;;5063667;28;20187;-77
2022/01/13 02:54:19;;;;;;;8.63;6.63;;;2.60;1.00;;;;;;5059815;28;20190;-77
2022/01/13 02:56:45;;;;;;;11.77;6.95;;;2.50;1.00;;;;;;5061116;28;20183;-77
2022/01/13 02:59:12;;;;;;;11.85;6.63;;;2.60;1.00;;;;;;5056256;28;20517;-77
2022/01/13 03:01:39;;;;;;;12.70;6.68;;;2.60;1.00;;;;;;5061822;28;20211;-74
2022/01/13 03:04:07;;;;;;;12.77;7.40;;;2.60;1.00;;;;;;5063887;28;20179;-74
2022/01/13 03:06:40;;;;;;;14.13;7.30;;;2.60;1.00;;;;;;5061888;28;20176;-74
2022/01/13 03:09:09;;;;;;;10.75;6.75;;;2.60;1.00;;;;;;5073684;28;20151;-74
2022/01/13 03:11:38;;;;;;;12.32;6.57;;;2.70;1.00;;;;;;5057956;28;20542;-74
2022/01/13 03:14:10;;;;;;;9.90;6.18;;;2.70;1.00;;;;;;5065954;28;20175;-75
2022/01/13 03:16:56;;;;;;;11.95;6.55;;;2.70;1.00;;;;;;5067806;28;20252;-77
2022/01/13 03:19:22;;;;;;;12.57;6.60;;;2.70;1.00;;;;;;5073845;28;20170;-77
2022/01/13 03:21:56;;;;;;;11.43;6.25;;;2.70;1.00;;;;;;5061225;28;20194;-77
2022/01/13 03:24:22;;;;;;;15.02;6.00;;;2.80;1.00;;;;;;5060915;28;20175;-77
2022/01/13 03:27:12;;;;;;;11.80;6.90;;;2.70;1.00;;;;;;5062738;28;20187;-77
2022/01/13 03:29:38;;;;;;;9.70;5.90;;;2.70;1.00;;;;;;5058451;28;20259;-77
2022/01/13 03:32:16;;;;;;;11.30;6.30;;;2.70;1.00;;;;;;5065823;28;20217;-77
2022/01/13 03:34:44;;;;;;;9.73;6.78;;;2.70;1.00;;;;;;5056798;28;20182;-77
2022/01/13 03:37:10;;;;;;;14.43;6.70;;;2.70;1.00;;;;;;5043163;28;20184;-77
2022/01/13 03:39:38;;;;;;;11.60;5.97;;;2.70;1.00;;;;;;5053703;28;20176;-77
2022/01/13 03:42:04;;;;;;;10.43;6.13;;;2.70;1.00;;;;;;5056321;28;20192;-78
2022/01/13 03:44:30;;;;;;;14.35;6.78;;;2.70;1.00;;;;;;5062781;28;20513;-77
2022/01/13 03:47:00;;;;;;;9.27;5.80;;;2.70;1.00;;;;;;5061497;28;20172;-77
2022/01/13 03:49:25;;;;;;;9.52;5.25;;;2.70;1.00;;;;;;5066943;28;20198;-77
2022/01/13 03:52:26;;;;;;;11.10;5.60;;;2.70;1.00;;;;;;5057716;28;20183;-79
2022/01/13 03:55:44;;;;;;;8.35;5.28;;;2.80;1.00;;;;;;5066366;28;20535;-77
2022/01/13 03:58:43;;;;;;;11.45;6.07;;;2.80;1.00;;;;;;5069517;28;20180;-77
2022/01/13 04:01:18;;;;;;;7.72;5.68;;;2.80;1.00;;;;;;5051823;28;20245;-74
2022/01/13 04:03:44;;;;;;;12.70;7.05;;;2.80;1.00;;;;;;5058904;28;20633;-74
2022/01/13 04:06:16;;;;;;;8.75;6.00;;;2.80;1.00;;;;;;5063244;28;20195;-75
2022/01/13 04:08:46;;;;;;;14.00;6.22;;;2.80;1.00;;;;;;5054297;28;20163;-74
2022/01/13 04:11:28;;;;;;;15.38;6.57;;;2.80;1.00;;;;;;5054415;28;20191;-74
2022/01/13 04:13:57;;;;;;;9.85;5.70;;;2.80;1.00;;;;;;5048266;28;20171;-75
2022/01/13 04:16:30;;;;;;;13.77;6.28;;;2.80;1.00;;;;;;5060974;28;20188;-75
2022/01/13 04:19:01;;;;;;;9.45;5.22;;;2.80;1.00;;;;;;5066619;28;20175;-74
2022/01/13 04:21:27;;;;;;;9.95;6.22;;;2.80;1.00;;;;;;5070293;28;20207;-74
2022/01/13 04:24:03;;;;;;;10.82;7.15;;;2.80;1.00;;;;;;5064186;28;20176;-75
2022/01/13 04:26:30;;;;;;;9.57;5.28;;;2.80;1.00;;;;;;5067028;28;20262;-74
2022/01/13 04:31:38;;;;;;;8.57;5.72;;;2.80;1.00;;;;;;5042666;28;20179;-77
2022/01/13 04:34:04;;;;;;;12.73;6.93;;;2.80;1.00;;;;;;5053983;28;20171;-77
2022/01/13 04:36:32;;;;;;;10.67;6.50;;;2.80;1.00;;;;;;5062325;28;20179;-77
2022/01/13 04:39:15;;;;;;;8.63;5.35;;;2.80;1.00;;;;;;5069349;28;20174;-77
2022/01/13 04:42:20;;;;;;;9.38;5.95;;;2.80;1.00;;;;;;5067678;28;20225;-77
2022/01/13 04:45:04;;;;;;;14.40;7.85;;;2.80;1.00;;;;;;5052089;28;20171;-77
2022/01/13 04:47:38;;;;;;;10.48;7.10;;;2.80;1.00;;;;;;5067674;28;20175;-77
2022/01/13 04:50:09;;;;;;;8.25;5.60;;;2.80;1.00;;;;;;5064190;28;20171;-77
2022/01/13 04:52:38;;;;;;;7.10;4.88;;;2.80;1.00;;;;;;5046501;28;20191;-77
2022/01/13 04:55:10;;;;;;;19.85;6.32;;;2.90;1.00;;;;;;5053384;28;20201;-77
2022/01/13 04:57:44;;;;;;;11.35;5.45;;;2.90;1.00;;;;;;5053669;28;20201;-78
2022/01/13 05:00:38;;;;;;;15.75;6.05;;;2.80;1.00;;;;;;5056513;28;20674;-77
2022/01/13 05:03:08;;;;;;;11.52;7.00;;;2.80;1.00;;;;;;5064373;28;20187;-76
2022/01/13 05:05:34;;;;;;;11.95;6.82;;;2.80;1.00;;;;;;5067091;28;20529;-74
2022/01/13 05:08:00;;;;;;;15.80;7.40;;;2.80;1.00;;;;;;5071946;28;20167;-74
2022/01/13 05:10:26;;;;;;;16.03;8.70;;;2.80;1.00;;;;;;5062730;28;20330;-74
2022/01/13 05:13:07;;;;;;;13.67;8.07;;;2.90;1.00;;;;;;5071907;28;20397;-74
2022/01/13 05:15:56;;;;;;;11.95;6.40;;;2.90;1.00;;;;;;5066649;28;20211;-75
2022/01/13 05:21:19;;;;;;;14.18;7.05;;;2.90;1.00;;;;;;5056369;28;20658;-77
2022/01/13 05:23:45;;;;;;;11.48;5.90;;;2.90;1.00;;;;;;5056213;28;20217;-77
2022/01/13 05:26:12;;;;;;;12.07;8.00;;;2.90;1.00;;;;;;5055318;28;20198;-78
2022/01/13 05:28:44;;;;;;;18.00;8.65;;;2.90;1.00;;;;;;5062588;28;20696;-77
2022/01/13 05:31:20;;;;;;;15.18;8.18;;;2.90;1.00;;;;;;5063537;28;20643;-77
2022/01/13 05:33:46;;;;;;;13.05;7.45;;;2.90;1.00;;;;;;5060559;28;20250;-77
2022/01/13 05:36:14;;;;;;;15.20;8.80;;;2.90;1.00;;;;;;5053090;28;20255;-77
2022/01/13 05:38:44;;;;;;;15.10;8.15;;;2.90;1.00;;;;;;5066333;28;20809;-78
2022/01/13 05:41:10;;;;;;;13.50;6.45;;;2.80;1.00;;;;;;5052501;28;20238;-78
2022/01/13 05:43:36;;;;;;;14.77;7.80;;;2.90;1.00;;;;;;5056083;28;20200;-78
2022/01/13 05:46:03;;;;;;;13.57;7.03;;;2.80;1.00;;;;;;5059642;28;20418;-75
2022/01/13 05:48:31;;;;;;;16.13;8.10;;;2.80;1.00;;;;;;5052760;28;20520;-74
2022/01/13 05:51:02;;;;;;;10.55;6.47;;;2.90;1.00;;;;;;5071502;28;20186;-75
2022/01/13 05:53:38;;;;;;;11.57;5.90;;;2.90;1.00;;;;;;5056455;28;20647;-74
2022/01/13 05:56:09;;;;;;;15.55;8.63;;;2.90;1.00;;;;;;5049448;28;20191;-75
2022/01/13 05:58:44;;;;;;;15.15;8.18;;;2.90;1.00;;;;;;5054692;28;20196;-74
2022/01/13 06:01:14;;;;;;;9.63;6.25;;;2.90;1.00;;;;;;5056023;28;20199;-77
2022/01/13 06:03:44;;;;;;;10.02;6.45;;;2.90;1.00;;;;;;5056244;28;20179;-78
2022/01/13 06:06:20;;;;;;;14.27;7.40;;;2.90;1.00;;;;;;5071991;28;20536;-77
2022/01/13 06:09:08;;;;;;;10.13;6.03;;;2.90;1.00;;;;;;5059785;28;20171;-76
2022/01/13 06:11:39;;;;;;;11.45;6.63;;;2.90;1.00;;;;;;5070636;28;20171;-77
2022/01/13 06:14:05;;;;;;;11.20;6.70;;;2.90;1.00;;;;;;5060355;28;20267;-77
2022/01/13 06:16:31;;;;;;;11.90;7.15;;;2.90;1.00;;;;;;5063797;28;20225;-75
2022/01/13 06:18:57;;;;;;;12.47;7.43;;;2.90;1.00;;;;;;5058381;28;20191;-74
2022/01/13 06:21:26;;;;;;;19.02;8.95;;;3.00;1.00;;;;;;5060532;28;20515;-75
2022/01/13 06:23:57;;;;;;;11.13;6.72;;;3.00;1.00;;;;;;5056266;28;20254;-75
2022/01/13 06:26:27;;;;;;;10.68;6.38;;;3.00;1.00;;;;;;5059413;28;20672;-78
2022/01/13 06:29:02;;;;;;;11.90;6.68;;;3.00;1.00;;;;;;5057902;28;20176;-75
2022/01/13 06:31:28;;;;;;;13.65;7.20;;;3.00;1.00;;;;;;5055521;28;20175;-75
2022/01/13 06:33:54;;;;;;;17.60;9.13;;;2.90;1.00;;;;;;5065717;28;20183;-75
2022/01/13 06:36:26;;;;;;;11.00;6.97;;;3.00;1.00;;;;;;5063865;28;20261;-77
2022/01/13 06:39:03;;;;;;;13.35;7.45;;;3.00;1.00;;;;;;5057261;28;20202;-75
2022/01/13 06:41:28;;;;;;;19.40;6.78;;;3.00;1.00;;;;;;5055905;28;20237;-74
2022/01/13 06:43:54;;;;;;;12.83;7.47;;;3.00;1.00;;;;;;5065300;28;20272;-75
2022/01/13 06:46:20;;;;;;;11.97;7.10;;;3.00;1.00;;;;;;5070527;28;20168;-76
2022/01/13 06:48:50;;;;;;;14.37;6.80;;;3.00;1.00;;;;;;5060751;28;20167;-75
2022/01/13 06:51:16;;;;;;;14.70;6.97;;;3.10;1.00;;;;;;5065143;28;20501;-76
2022/01/13 06:53:42;;;;;;;16.63;9.17;;;3.10;1.00;;;;;;5067130;28;20275;-75
2022/01/13 06:56:07;;;;;;;12.57;6.63;;;3.00;1.00;;;;;;5056605;28;20647;-74
2022/01/13 06:58:33;;;;;;;13.80;7.93;;;3.10;1.00;;;;;;5055518;28;20239;-75
2022/01/13 07:01:08;;;;;;;13.27;6.90;;;3.10;1.00;;;;;;5055732;28;20195;-74
2022/01/13 07:03:56;;;;;;;21.33;9.55;;;3.10;1.00;;;;;;5060667;28;20982;-77
2022/01/13 07:06:39;;;;;;;16.20;8.20;;;3.10;1.00;;;;;;5049841;28;20921;-77
2022/01/13 07:09:07;;;;;;;12.32;8.00;;;3.10;1.00;;;;;;5061902;28;20687;-78
2022/01/13 07:11:40;;;;;;;14.65;7.68;;;3.10;1.00;;;;;;5062514;28;20182;-77
2022/01/13 07:14:08;;;;;;;11.77;6.50;;;3.10;1.00;;;;;;5053368;28;20570;-77
2022/01/13 07:16:45;;;;;;;13.35;7.57;;;3.10;1.00;;;;;;5056491;28;20184;-77
2022/01/13 07:19:13;;;;;;;16.45;8.05;;;3.10;1.00;;;;;;5055043;28;20658;-77
2022/01/13 07:21:43;;;;;;;13.98;8.15;;;3.10;1.00;;;;;;5062780;28;20618;-77
2022/01/13 07:24:10;;;;;;;14.52;7.80;;;3.10;1.00;;;;;;5068517;28;20559;-77
2022/01/13 07:26:35;;;;;;;13.57;7.38;;;3.10;1.00;;;;;;5061314;28;20657;-77
2022/01/13 07:29:01;;;;;;;14.47;6.50;;;;;;;;;;5065846;28;20175;-78
2022/01/13 07:31:28;;;;;;;10.60;6.60;;;;;;;;;;5063670;28;20183;-77
2022/01/13 07:33:54;;;;;;;15.90;7.68;;;3.20;1.00;;;;;;5066868;28;20167;-77
2022/01/13 07:36:20;;;;;;;14.73;8.10;;;3.10;1.00;;;;;;5060729;28;20515;-73
2022/01/13 07:38:45;;;;;;;8.40;5.10;;;3.10;1.00;;;;;;5059101;28;20186;-76
2022/01/13 07:41:11;;;;;;;11.57;6.70;;;3.10;1.00;;;;;;5066275;28;20270;-77
2022/01/13 07:43:37;;;;;;;11.30;6.00;;;3.20;1.00;;;;;;5057354;28;20601;-77
2022/01/13 07:46:03;;;;;;;11.67;6.90;;;3.20;1.00;;;;;;5069220;28;20201;-78
2022/01/13 07:48:29;;;;;;;11.65;6.07;;;;;;;;;;5068131;28;20293;-75
2022/01/13 07:50:54;;;;;;;9.80;6.33;;;3.10;1.00;;;;;;5062951;28;20262;-74
2022/01/13 07:53:20;;;;;;;10.17;6.13;;;3.20;1.00;;;;;;5059515;28;20982;-74
2022/01/13 07:55:46;;;;;;;11.93;6.70;;;3.30;1.00;;;;;;5065577;28;20681;-74
2022/01/13 07:58:12;;;;;;;11.00;6.80;;;3.30;1.00;;;;;;5053297;28;20592;-74
2022/01/13 08:00:37;;;;;;;14.17;6.73;;;3.30;1.00;;;;;;5053330;28;20191;-74
2022/01/13 08:03:03;;;;;;;10.80;6.90;;;3.30;1.00;;;;;;5058723;28;20422;-76
2022/01/13 08:05:29;;;;;;;10.60;6.17;;;3.40;1.00;;;;;;5053660;28;20919;-76
2022/01/13 08:07:55;;;;;;;10.80;6.50;;;;;;;;;;5060947;28;20699;-76
2022/01/13 08:10:21;;;;;;;11.83;6.43;;;3.40;1.00;;;;;;5081350;28;20186;-76
2022/01/13 08:12:47;;;;;;;10.57;6.80;;;3.40;1.00;;;;;;5064820;28;20794;-76
2022/01/13 08:15:14;;;;;;;15.50;7.50;;;3.40;1.00;;;;;;5055564;28;20478;-76
2022/01/13 08:20:34;;;;;;;8.77;5.50;;;3.40;1.00;;;;;;5065822;28;20190;-74
2022/01/13 08:23:01;;;;;;;14.77;7.20;;;3.40;1.00;;;;;;5053125;28;20517;-74
2022/01/13 08:25:28;;;;;;;11.98;6.22;;;3.40;1.00;;;;;;5071497;28;20641;-74
2022/01/13 08:27:53;;;;;;;10.52;6.38;;;3.40;1.00;;;;;;5049926;28;20655;-74
2022/01/13 08:30:19;;;;;;;11.40;6.07;;;3.50;1.00;;;;;;5066891;28;20178;-74
2022/01/13 08:32:45;;;;;;;8.70;5.90;;;3.60;1.00;;;;;;5066637;28;20171;-74
2022/01/13 08:35:11;;;;;;;16.67;7.67;;;3.60;1.00;;;;;;5072387;28;20419;-74
2022/01/13 08:37:37;;;;;;;10.10;5.55;;;3.60;1.00;;;;;;5058851;28;20257;-74
2022/01/13 08:40:05;;;;;;;14.83;6.30;;;3.70;1.00;;;;;;5066007;28;20186;-74
2022/01/13 08:42:36;;;;;;;9.90;5.97;;;3.70;1.00;;;;;;5065894;28;20541;-74
2022/01/13 08:45:04;;;;;;;7.05;5.10;;;3.70;1.00;;;;;;5052996;28;20618;-74
2022/01/13 08:47:36;;;;;;;10.13;4.55;;;3.70;1.00;;;;;;5052970;28;20254;-74
2022/01/13 08:50:05;;;;;;;8.95;5.63;;;3.70;1.00;;;;;;5052668;28;20156;-74
2022/01/13 08:52:33;;;;;;;7.43;5.47;;;3.70;1.00;;;;;;5061958;28;20186;-74
2022/01/13 08:55:01;;;;;;;14.23;5.55;;;3.80;1.00;;;;;;5050695;28;20187;-74
2022/01/13 08:57:27;;;;;;;9.18;4.90;;;;;;;;;;5059475;28;20662;-77
2022/01/13 08:59:52;;;;;;;10.60;5.63;;;3.90;1.00;;;;;;5047492;28;20187;-76
2022/01/13 09:02:18;;;;;;;9.73;5.23;;;3.90;1.00;;;;;;5053213;28;20458;-77
2022/01/13 09:04:45;;;;;;;5.93;4.83;;;;;;;;;;5073127;28;20198;-77
2022/01/13 09:07:10;;;;;;;7.40;5.23;;;4.00;1.00;;;;;;5072862;28;20444;-77
2022/01/13 09:09:41;;;;;;;9.90;5.80;;;4.00;1.00;;;;;;5072818;28;20428;-77
2022/01/13 09:12:09;;;;;;;9.20;5.23;;;4.10;1.00;;;;;;5072541;28;20416;-77
2022/01/13 09:14:34;;;;;;;10.73;5.30;;;4.10;1.00;;;;;;5061810;28;20433;-77
2022/01/13 09:17:03;;;;;;;9.10;5.40;;;4.10;1.00;;;;;;5047157;28;20205;-77
2022/01/13 09:19:29;;;;;;;9.30;5.57;;;5.30;1.00;;;;;;5058632;28;20183;-76
2022/01/13 09:21:55;;;;;;;5.97;4.40;;;;;;;;;;5063695;28;20456;-76
2022/01/13 09:24:22;;;;;;;11.35;5.00;;;4.20;1.00;;;;;;5059962;28;20174;-77
2022/01/13 09:26:48;;;;;;;11.52;6.28;;;4.20;1.00;;;;;;5061123;28;20607;-76
2022/01/13 09:29:15;;;;;;;10.07;5.27;;;4.20;1.00;;;;;;5065065;28;20179;-76
2022/01/13 09:31:42;;;;;;;6.13;4.87;;;4.20;1.00;;;;;;5063520;28;20545;-76
2022/01/13 09:34:09;;;;;;;11.10;5.80;;;4.20;1.00;;;;;;5070542;28;20447;-76
2022/01/13 09:36:36;;;;;;;17.77;6.20;;;4.00;1.00;;;;;;5066770;28;20429;-76
2022/01/13 09:39:04;;;;;;;9.40;5.72;;;4.00;1.00;;;;;;5062900;28;20425;-76
2022/01/13 09:41:32;;;;;;;8.90;6.28;;;4.00;1.00;;;;;;5067443;28;20200;-76
2022/01/13 09:44:04;;;;;;;11.77;6.27;;;4.00;1.00;;;;;;5072321;28;20202;-76
2022/01/13 09:46:30;;;;;;;8.98;5.80;;;4.00;1.00;;;;;;5066245;28;20430;-76
2022/01/13 09:48:56;;;;;;;9.93;6.57;;;4.00;1.00;;;;;;5063764;28;20210;-74
2022/01/13 09:51:25;;;;;;;12.53;7.03;;;4.00;1.00;;;;;;5064912;28;20191;-74
2022/01/13 09:53:51;;;;;;;9.98;6.07;;;4.00;1.00;;;;;;5073189;28;20448;-74
2022/01/13 09:56:17;;;;;;;15.50;6.57;;;4.10;1.00;;;;;;5064675;28;20222;-74
2022/01/13 09:58:44;;;;;;;9.90;6.50;;;4.20;1.00;;;;;;5067493;28;20430;-74
2022/01/13 10:01:13;;;;;;;9.00;5.97;;;4.20;1.00;;;;;;5064316;28;20570;-74
2022/01/13 10:03:39;;;;;;;11.27;7.10;;;4.40;1.00;;;;;;5064231;28;20471;-74
2022/01/13 10:06:16;;;;;;;11.73;6.80;;;4.40;1.00;;;;;;5063424;28;20213;-74
2022/01/13 10:08:48;;;;;;;11.07;6.70;;;4.40;1.00;;;;;;5066379;28;20210;-74
2022/01/13 10:11:36;;;;;;;15.50;6.70;;;4.40;1.00;;;;;;5065116;28;20172;-74
2022/01/13 10:14:17;;;;;;;11.05;6.13;;;4.30;1.00;;;;;;5066001;28;20428;-74
2022/01/13 10:16:49;;;;;;;12.35;6.18;;;4.30;1.00;;;;;;5061171;28;20202;-74
2022/01/13 10:19:30;;;;;;;13.45;7.03;;;4.30;1.00;;;;;;5059036;28;20217;-74
2022/01/13 10:22:03;;;;;;;12.95;6.88;;;4.20;1.00;;;;;;5061926;28;20698;-74
2022/01/13 10:24:31;;;;;;;13.63;7.88;;;4.10;1.00;;;;;;5067624;28;20262;-74
2022/01/13 10:27:11;;;;;;;13.60;7.10;;;4.20;1.00;;;;;;5062805;28;20576;-74
2022/01/13 10:29:46;;;;;;;9.40;6.03;;;4.30;1.00;;;;;;5062739;28;20421;-74
2022/01/13 10:32:21;;;;;;;13.50;6.70;;;4.30;1.00;;;;;;5076305;28;20500;-74
2022/01/13 10:35:01;;;;;;;13.37;6.57;;;4.30;1.00;;;;;;5056646;28;20456;-76
2022/01/13 10:37:35;;;;;;;10.50;6.18;;;4.30;1.00;;;;;;5056233;28;20500;-76
2022/01/13 10:40:05;;;;;;;9.67;6.10;;;4.30;1.00;;;;;;5082046;28;20190;-76
2022/01/13 10:45:36;;;;;;;7.97;5.97;;;4.30;1.00;;;;;;5056114;28;20969;-77
2022/01/13 10:48:11;;;;;;;14.13;7.10;;;4.20;1.00;;;;;;5050041;28;20445;-76
2022/01/13 10:50:52;;;;;;;10.77;6.57;;;4.30;1.00;;;;;;5069584;28;20405;-76
2022/01/13 10:53:25;;;;;;;9.97;6.10;;;4.30;1.00;;;;;;5061700;28;20417;-76
2022/01/13 10:56:06;;;;;;;17.10;7.23;;;4.30;1.00;;;;;;5046792;28;20445;-76
2022/01/13 10:58:53;;;;;;;12.97;6.37;;;4.40;1.00;;;;;;5063041;28;20430;-76
2022/01/13 11:01:47;;;;;;;11.23;6.75;;;4.40;1.00;;;;;;5055698;28;20500;-76
2022/01/13 11:04:31;;;;;;;12.63;6.40;;;4.30;1.00;;;;;;5050095;28;20190;-74
2022/01/13 11:07:18;;;;;;;13.57;6.53;;;4.30;1.00;;;;;;5055410;28;20438;-74
2022/01/13 11:10:06;;;;;;;10.40;6.60;;;4.30;1.00;;;;;;5066081;28;20763;-74
2022/01/13 11:12:38;;;;;;;9.50;6.47;;;4.40;1.00;;;;;;5054847;28;20912;-74
2022/01/13 11:15:12;;;;;;;8.95;6.00;;;4.50;1.00;;;;;;5060675;28;20496;-74
2022/01/13 11:17:40;;;;;;;8.97;5.00;;;4.50;1.00;;;;;;5073001;28;20568;-74
2022/01/13 11:20:08;;;;;;;10.27;6.03;;;4.60;1.00;;;;;;5071289;28;20424;-74
2022/01/13 11:22:39;;;;;;;14.37;6.53;;;4.60;1.00;;;;;;5054823;28;20449;-74
2022/01/13 11:25:11;;;;;;;14.20;6.10;;;4.60;1.00;;;;;;5053376;28;20442;-74
2022/01/13 11:27:38;;;;;;;8.30;5.50;;;4.60;1.00;;;;;;5064371;28;20804;-74
2022/01/13 11:30:11;;;;;;;13.57;6.23;;;4.60;1.00;;;;;;5055508;28;20399;-74
2022/01/13 11:32:43;;;;;;;9.47;6.57;;;4.60;1.00;;;;;;5056321;28;20414;-74
2022/01/13 11:35:23;;;;;;;13.40;6.67;;;4.60;1.00;;;;;;5055255;28;20410;-74
2022/01/13 11:37:50;;;;;;;13.40;7.17;;;4.50;1.00;;;;;;5054872;28;20394;-74
2022/01/13 11:40:39;;;;;;;12.23;5.83;;;4.50;1.00;;;;;;5064525;28;20725;-74
2022/01/13 11:43:08;;;;;;;10.10;6.23;;;4.50;1.00;;;;;;5048832;28;20421;-74
2022/01/13 11:45:47;;;;;;;10.93;6.22;;;4.50;1.00;;;;;;5062444;28;20465;-73
2022/01/13 11:48:18;;;;;;;10.82;6.55;;;4.50;1.00;;;;;;5069777;28;20190;-72
2022/01/13 11:51:02;;;;;;;9.63;6.53;;;4.50;1.00;;;;;;5054853;28;20578;-76
2022/01/13 11:53:31;;;;;;;14.83;6.37;;;4.50;1.00;;;;;;5054756;28;20194;-75
2022/01/13 11:55:57;;;;;;;10.00;5.97;;;4.50;1.00;;;;;;5064735;28;20449;-75
2022/01/13 11:58:33;;;;;;;20.53;7.83;;;4.50;1.00;;;;;;5054457;28;20403;-76
2022/01/13 12:01:20;;;;;;;14.83;7.20;;;4.30;1.00;;;;;;5034672;28;20266;-75
2022/01/13 12:03:59;;;;;;;13.03;6.87;;;4.30;1.00;;;;;;5044420;28;20417;-74
2022/01/13 12:06:46;;;;;;;13.30;6.77;;;4.50;1.00;;;;;;5057903;28;20445;-76
2022/01/13 12:09:32;;;;;;;12.60;6.80;;;4.60;1.00;;;;;;5063946;28;21045;-77
2022/01/13 12:11:59;;;;;;;11.27;6.60;;;4.60;1.00;;;;;;5060577;28;20421;-77
2022/01/13 12:14:30;;;;;;;35.30;15.77;;;4.70;1.00;;;;;;5061928;28;20406;-79
2022/01/13 12:16:56;;;;;;;33.10;10.43;;;4.70;1.00;;;;;;5054454;28;20493;-76
2022/01/13 12:19:39;;;;;;;17.27;8.93;;;5.70;1.00;;;;;;5069861;28;20417;-76
2022/01/13 12:22:36;;;;;;;33.40;15.77;;;4.80;1.00;;;;;;5047997;28;20453;-74
2022/01/13 12:25:06;;;;;;;35.83;12.53;;;4.90;1.00;;;;;;5064655;28;20406;-74
2022/01/13 12:27:37;;;;;;;43.07;15.60;;;5.00;1.00;;;;;;5054471;28;20487;-74
2022/01/13 12:30:10;;;;;;;14.87;8.13;;;5.00;1.00;;;;;;5048779;28;20920;-72
2022/01/13 12:32:48;;;;;;;13.83;7.53;;;5.00;1.00;;;;;;5061051;28;20437;-72
2022/01/13 12:35:39;;;;;;;13.23;6.80;;;4.90;1.00;;;;;;5046971;28;20467;-72
2022/01/13 12:38:18;;;;;;;9.10;5.80;;;5.00;1.00;;;;;;5043937;28;20414;-76
2022/01/13 12:41:01;;;;;;;16.03;7.90;;;5.00;1.00;;;;;;5042654;28;20445;-75
2022/01/13 12:43:48;;;;;;;9.70;5.60;;;5.00;1.00;;;;;;5053202;28;20452;-76
2022/01/13 12:46:24;;;;;;;14.33;7.17;;;5.00;1.00;;;;;;5050230;28;21007;-75
2022/01/13 12:48:52;;;;;;;10.40;6.63;;;5.00;1.00;;;;;;5054550;28;20433;-76
2022/01/13 12:51:27;;;;;;;82.03;36.97;;;5.00;1.00;;;;;;5053544;28;20426;-74
2022/01/13 12:53:57;;;;;;;48.10;20.20;;;5.00;1.00;;;;;;5056166;28;20417;-75
2022/01/13 12:56:29;;;;;;;24.00;10.77;;;5.00;1.00;;;;;;5061655;28;20904;-74
2022/01/13 12:58:58;;;;;;;34.47;15.53;;;5.00;1.00;;;;;;5056413;28;20974;-74
2022/01/13 13:01:33;;;;;;;21.60;10.43;;;4.90;1.00;;;;;;5059797;28;20465;-74
2022/01/13 13:04:06;;;;;;;15.97;7.90;;;5.00;1.00;;;;;;5067463;28;20452;-74
2022/01/13 13:06:35;;;;;;;12.33;7.20;;;4.90;1.00;;;;;;5059917;28;20419;-75
2022/01/13 13:09:10;;;;;;;12.00;6.57;;;4.80;1.00;;;;;;5054397;28;20959;-75
2022/01/13 13:11:44;;;;;;;11.60;7.10;;;4.80;1.00;;;;;;5063690;28;20429;-74
2022/01/13 13:14:19;;;;;;;12.27;7.00;;;4.80;1.00;;;;;;5070018;28;20425;-74
2022/01/13 13:16:46;;;;;;;15.03;7.13;;;4.70;1.00;;;;;;5058731;28;20764;-75
2022/01/13 13:19:12;;;;;;;11.87;7.07;;;4.80;1.00;;;;;;5062553;28;20435;-74
2022/01/13 13:21:39;;;;;;;20.03;8.23;;;4.80;1.00;;;;;;5058733;28;20453;-74
2022/01/13 13:24:05;;;;;;;9.80;6.50;;;4.70;1.00;;;;;;5056567;28;20513;-75
2022/01/13 13:26:31;;;;;;;54.47;22.37;;;;;;;;;;5050601;28;20422;-74
2022/01/13 13:28:58;;;;;;;19.73;8.37;;;4.80;1.00;;;;;;5054043;28;20468;-74
2022/01/13 13:31:27;;;;;;;15.10;8.37;;;4.70;1.00;;;;;;5049858;28;20418;-74
2022/01/13 13:34:13;;;;;;;13.77;6.93;;;4.70;1.00;;;;;;5064086;28;20969;-74
2022/01/13 13:36:47;;;;;;;10.57;6.27;;;4.70;1.00;;;;;;5058190;28;20962;-75
2022/01/13 13:39:20;;;;;;;11.33;6.77;;;4.70;1.00;;;;;;5067375;28;20935;-75
2022/01/13 13:41:56;;;;;;;11.67;7.27;;;4.70;1.00;;;;;;5073425;28;20441;-75
2022/01/13 13:44:27;;;;;;;13.80;6.60;;;4.70;1.00;;;;;;5059716;28;20431;-75
2022/01/13 13:46:55;;;;;;;18.20;9.23;;;4.60;1.00;;;;;;5060325;28;20547;-76
2022/01/13 13:49:22;;;;;;;16.63;8.00;;;4.50;1.00;;;;;;5057677;28;20433;-75
2022/01/13 13:51:54;;;;;;;22.97;8.23;;;4.50;1.00;;;;;;5053998;28;20437;-75
2022/01/13 13:54:27;;;;;;;15.60;8.57;;;4.50;1.00;;;;;;5051185;28;20458;-76
2022/01/13 13:57:05;;;;;;;21.40;11.10;;;4.60;1.00;;;;;;5049914;28;20433;-77
2022/01/13 13:59:42;;;;;;;13.50;7.67;;;4.50;1.00;;;;;;5053442;28;20448;-75
2022/01/13 14:02:13;;;;;;;10.97;7.13;;;4.50;1.00;;;;;;5056919;28;20463;-75